Nearby METAR Reports

 

EGNV - Tees-Side, United Kingdom
Distance from station: W 8mi, 13km
Updated: 17/07/2018 19:50
Clear
Clear
 Wind from SW
Wind: SW 10 mph , 17 km/h
Temperature: 18°C
Dew Point: 8°C
Humidity: 52%
Barometer: 1014 hPa
Summary: Clear
Visibility: greater than 7 miles , 10 km
2018/07/17 18:50 EGNV 171850Z 22009KT CAVOK 18/08 Q1014
EGXE - Leeming Raf, United Kingdom
Distance from station: SW 21mi, 34km
Updated: 17/07/2018 19:50
Partly cloudy
Partly cloudy
 Wind from WSW
Wind: WSW 8 mph , 13 km/h
Temperature: 18°C
Dew Point: 8°C
Humidity: 52%
Barometer: 1015 hPa
Clouds: Partly cloudy
Visibility: 6 miles , 10 km
Cloud details: Partly cloudy 1829 m
2018/07/17 18:50 EGXE 171850Z AUTO 25007KT 9999 SCT060/// 18/08 Q1015
 
EGXZ - Topcliffe Raf, United Kingdom
Distance from station: SSW 24mi, 38km
Updated: 17/07/2018 10:50
NOT Current
Mostly cloudy
Mostly cloudy
 Wind from SW
Wind: SW 5 mph , 7 km/h
Temperature: 18°C
Dew Point: 13°C
Humidity: 73%
Barometer: 1014 hPa
Clouds: Mostly cloudy
Visibility: 6 miles , 10 km
Cloud details: Few Clouds 610 m
Mostly cloudy 1829 m
2018/07/17 09:50 EGXZ 170950Z 22004KT 9999 FEW020 BKN060 18/13 Q1014 BLU
EGXD - Dishforth Raf, United Kingdom
Distance from station: SSW 29mi, 46km
Updated: 06/06/2016 10:50
NOT Current
Clear
Clear
 Wind from SSE
Wind: SSE 5 mph , 7 km/h
Temperature: 18°C
Dew Point: 11°C
Humidity: 64%
Barometer: 1023 hPa
Clouds: Clear
Visibility: 6 miles , 10 km
2016/06/06 09:50 EGXD 060950Z AUTO 16004KT 9999 // NCD 18/11 Q1023
 
EGXU - Linton-On-Ouse R, United Kingdom
Distance from station: S 33mi, 53km
Updated: 17/07/2018 19:50
Partly cloudy
Partly cloudy
 Wind from W
Wind: W 9 mph , 15 km/h
Temperature: 19°C
Dew Point: 9°C
Humidity: 52%
Barometer: 1015 hPa
Clouds: Partly cloudy
Visibility: 6 miles , 10 km
Cloud details: Partly cloudy 1524 m
Partly cloudy 2134 m
2018/07/17 18:50 EGXU 171850Z AUTO 26008KT 9999 // SCT050/// SCT070/// 19/09 Q1015
EGNT - Newcastle, United Kingdom
Distance from station: NNW 39mi, 63km
Updated: 17/07/2018 19:50
Few Clouds
Few Clouds
 Wind from WSW
Wind: WSW 7 mph , 11 km/h
Temperature: 17°C
Dew Point: 9°C
Humidity: 59%
Barometer: 1014 hPa
Clouds: Few Clouds
Visibility: 6 miles , 10 km
Cloud details: Few Clouds 1158 m
2018/07/17 18:50 EGNT 171850Z 25006KT 9999 FEW038 17/09 Q1014
 
EGNM - Leeds And Bradfo, United Kingdom
Distance from station: SSW 49mi, 79km
Updated: 17/07/2018 19:50
Few Clouds
Few Clouds
 Wind from W
Wind: W 13 mph , 20 km/h
Temperature: 17°C
Dew Point: 7°C
Humidity: 52%
Barometer: 1015 hPa
Clouds: Few Clouds
Visibility: 6 miles , 10 km
Cloud details: Few Clouds 914 m
2018/07/17 18:50 EGNM 171850Z 26011KT 9999 FEW030 17/07 Q1015